sensor_id;sensor_type;location;lat;lon;timestamp;temperature;humidity
6118;DHT22;3089;48.202;11.510;2024-02-21T00:01:03;7.30;99.90
6118;DHT22;3089;48.202;11.510;2024-02-21T00:03:32;7.30;99.90
6118;DHT22;3089;48.202;11.510;2024-02-21T00:06:00;7.30;99.90
6118;DHT22;3089;48.202;11.510;2024-02-21T00:08:28;7.20;99.90
6118;DHT22;3089;48.202;11.510;2024-02-21T00:10:56;7.20;99.90
6118;DHT22;3089;48.202;11.510;2024-02-21T00:13:25;7.30;99.90
6118;DHT22;3089;48.202;11.510;2024-02-21T00:15:53;7.30;99.90
6118;DHT22;3089;48.202;11.510;2024-02-21T00:18:21;7.30;99.90
6118;DHT22;3089;48.202;11.510;2024-02-21T00:20:56;7.20;99.90
6118;DHT22;3089;48.202;11.510;2024-02-21T00:23:23;7.20;99.90
6118;DHT22;3089;48.202;11.510;2024-02-21T00:25:51;7.20;99.90
6118;DHT22;3089;48.202;11.510;2024-02-21T00:28:19;7.20;99.90
6118;DHT22;3089;48.202;11.510;2024-02-21T00:30:49;7.10;99.90
6118;DHT22;3089;48.202;11.510;2024-02-21T00:33:19;7.20;99.90
6118;DHT22;3089;48.202;11.510;2024-02-21T00:35:47;7.20;99.90
6118;DHT22;3089;48.202;11.510;2024-02-21T00:38:15;7.10;99.90
6118;DHT22;3089;48.202;11.510;2024-02-21T00:40:43;7.10;99.90
6118;DHT22;3089;48.202;11.510;2024-02-21T00:43:12;7.10;99.90
6118;DHT22;3089;48.202;11.510;2024-02-21T00:45:40;7.10;99.90
6118;DHT22;3089;48.202;11.510;2024-02-21T00:48:09;7.10;99.90
6118;DHT22;3089;48.202;11.510;2024-02-21T00:50:38;7.10;99.90
6118;DHT22;3089;48.202;11.510;2024-02-21T00:53:06;7.10;99.90
6118;DHT22;3089;48.202;11.510;2024-02-21T00:55:34;7.10;99.90
6118;DHT22;3089;48.202;11.510;2024-02-21T00:58:02;7.10;99.90
6118;DHT22;3089;48.202;11.510;2024-02-21T01:00:30;7.00;99.90
6118;DHT22;3089;48.202;11.510;2024-02-21T01:02:58;7.00;99.90
6118;DHT22;3089;48.202;11.510;2024-02-21T01:05:27;7.10;99.90
6118;DHT22;3089;48.202;11.510;2024-02-21T01:07:55;7.00;99.90
6118;DHT22;3089;48.202;11.510;2024-02-21T01:10:23;7.00;99.90
6118;DHT22;3089;48.202;11.510;2024-02-21T01:12:51;7.00;99.90
6118;DHT22;3089;48.202;11.510;2024-02-21T01:15:20;7.00;99.90
6118;DHT22;3089;48.202;11.510;2024-02-21T01:17:48;6.90;99.90
6118;DHT22;3089;48.202;11.510;2024-02-21T01:20:16;6.90;99.90
6118;DHT22;3089;48.202;11.510;2024-02-21T01:22:46;6.90;99.90
6118;DHT22;3089;48.202;11.510;2024-02-21T01:25:14;6.90;99.90
6118;DHT22;3089;48.202;11.510;2024-02-21T01:27:42;7.00;99.90
6118;DHT22;3089;48.202;11.510;2024-02-21T01:30:11;6.90;99.90
6118;DHT22;3089;48.202;11.510;2024-02-21T01:32:39;6.90;99.90
6118;DHT22;3089;48.202;11.510;2024-02-21T01:35:08;6.90;99.90
6118;DHT22;3089;48.202;11.510;2024-02-21T01:37:36;6.80;99.90
6118;DHT22;3089;48.202;11.510;2024-02-21T01:40:07;6.80;99.90
6118;DHT22;3089;48.202;11.510;2024-02-21T01:42:38;6.90;99.90
6118;DHT22;3089;48.202;11.510;2024-02-21T01:45:06;6.90;99.90
6118;DHT22;3089;48.202;11.510;2024-02-21T01:47:35;6.90;99.90
6118;DHT22;3089;48.202;11.510;2024-02-21T01:50:03;6.80;99.90
6118;DHT22;3089;48.202;11.510;2024-02-21T01:52:33;6.80;99.90
6118;DHT22;3089;48.202;11.510;2024-02-21T01:55:02;6.80;99.90
6118;DHT22;3089;48.202;11.510;2024-02-21T01:57:32;6.80;99.90
6118;DHT22;3089;48.202;11.510;2024-02-21T02:00:00;6.80;99.90
6118;DHT22;3089;48.202;11.510;2024-02-21T02:02:29;6.80;99.90
6118;DHT22;3089;48.202;11.510;2024-02-21T02:04:57;6.80;99.90
6118;DHT22;3089;48.202;11.510;2024-02-21T02:07:25;6.80;99.90
6118;DHT22;3089;48.202;11.510;2024-02-21T02:09:53;6.80;99.90
6118;DHT22;3089;48.202;11.510;2024-02-21T02:12:21;6.80;99.90
6118;DHT22;3089;48.202;11.510;2024-02-21T02:14:59;6.70;99.90
6118;DHT22;3089;48.202;11.510;2024-02-21T02:17:27;6.70;99.90
6118;DHT22;3089;48.202;11.510;2024-02-21T02:19:55;6.70;99.90
6118;DHT22;3089;48.202;11.510;2024-02-21T02:22:28;6.70;99.90
6118;DHT22;3089;48.202;11.510;2024-02-21T02:24:58;6.70;99.90
6118;DHT22;3089;48.202;11.510;2024-02-21T02:27:26;6.70;99.90
6118;DHT22;3089;48.202;11.510;2024-02-21T02:29:54;6.70;99.90
6118;DHT22;3089;48.202;11.510;2024-02-21T02:32:22;6.70;99.90
6118;DHT22;3089;48.202;11.510;2024-02-21T02:34:50;6.60;99.90
6118;DHT22;3089;48.202;11.510;2024-02-21T02:37:17;6.70;99.90
6118;DHT22;3089;48.202;11.510;2024-02-21T02:39:46;6.60;99.90
6118;DHT22;3089;48.202;11.510;2024-02-21T02:42:15;6.70;99.90
6118;DHT22;3089;48.202;11.510;2024-02-21T02:44:43;6.70;99.90
6118;DHT22;3089;48.202;11.510;2024-02-21T02:47:11;6.60;99.90
6118;DHT22;3089;48.202;11.510;2024-02-21T02:49:39;6.60;99.90
6118;DHT22;3089;48.202;11.510;2024-02-21T02:52:07;6.60;99.90
6118;DHT22;3089;48.202;11.510;2024-02-21T02:54:35;6.70;99.90
6118;DHT22;3089;48.202;11.510;2024-02-21T02:57:03;6.60;99.90
6118;DHT22;3089;48.202;11.510;2024-02-21T02:59:33;6.60;99.90
6118;DHT22;3089;48.202;11.510;2024-02-21T03:02:01;6.60;99.90
6118;DHT22;3089;48.202;11.510;2024-02-21T03:04:29;6.50;99.90
6118;DHT22;3089;48.202;11.510;2024-02-21T03:06:58;6.60;99.90
6118;DHT22;3089;48.202;11.510;2024-02-21T03:09:25;6.60;99.90
6118;DHT22;3089;48.202;11.510;2024-02-21T03:11:54;6.60;99.90
6118;DHT22;3089;48.202;11.510;2024-02-21T03:14:29;6.60;99.90
6118;DHT22;3089;48.202;11.510;2024-02-21T03:16:58;6.60;99.90
6118;DHT22;3089;48.202;11.510;2024-02-21T03:19:27;6.60;99.90
6118;DHT22;3089;48.202;11.510;2024-02-21T03:21:55;6.60;99.90
6118;DHT22;3089;48.202;11.510;2024-02-21T03:24:23;6.60;99.90
6118;DHT22;3089;48.202;11.510;2024-02-21T03:26:51;6.60;99.90
6118;DHT22;3089;48.202;11.510;2024-02-21T03:29:19;6.50;99.90
6118;DHT22;3089;48.202;11.510;2024-02-21T03:31:47;6.50;99.90
6118;DHT22;3089;48.202;11.510;2024-02-21T03:34:16;6.40;99.90
6118;DHT22;3089;48.202;11.510;2024-02-21T03:36:45;6.40;99.90
6118;DHT22;3089;48.202;11.510;2024-02-21T03:39:12;6.40;99.90
6118;DHT22;3089;48.202;11.510;2024-02-21T03:41:40;6.40;99.90
6118;DHT22;3089;48.202;11.510;2024-02-21T03:44:08;6.40;99.90
6118;DHT22;3089;48.202;11.510;2024-02-21T03:46:36;6.30;99.90
6118;DHT22;3089;48.202;11.510;2024-02-21T03:49:04;6.40;99.90
6118;DHT22;3089;48.202;11.510;2024-02-21T03:51:34;6.40;99.90
6118;DHT22;3089;48.202;11.510;2024-02-21T03:54:02;6.40;99.90
6118;DHT22;3089;48.202;11.510;2024-02-21T03:56:30;6.40;99.90
6118;DHT22;3089;48.202;11.510;2024-02-21T03:58:58;6.30;99.90
6118;DHT22;3089;48.202;11.510;2024-02-21T04:01:26;6.40;99.90
6118;DHT22;3089;48.202;11.510;2024-02-21T04:03:54;6.40;99.90
6118;DHT22;3089;48.202;11.510;2024-02-21T04:06:22;6.30;99.90
6118;DHT22;3089;48.202;11.510;2024-02-21T04:08:51;6.40;99.90
6118;DHT22;3089;48.202;11.510;2024-02-21T04:11:19;6.40;99.90
6118;DHT22;3089;48.202;11.510;2024-02-21T04:13:47;6.30;99.90
6118;DHT22;3089;48.202;11.510;2024-02-21T04:16:17;6.30;99.90
6118;DHT22;3089;48.202;11.510;2024-02-21T04:18:45;6.30;99.90
6118;DHT22;3089;48.202;11.510;2024-02-21T04:21:14;6.30;99.90
6118;DHT22;3089;48.202;11.510;2024-02-21T04:23:44;6.20;99.90
6118;DHT22;3089;48.202;11.510;2024-02-21T04:26:13;6.20;99.90
6118;DHT22;3089;48.202;11.510;2024-02-21T04:28:41;6.20;99.90
6118;DHT22;3089;48.202;11.510;2024-02-21T04:31:11;6.20;99.90
6118;DHT22;3089;48.202;11.510;2024-02-21T04:33:39;6.20;99.90
6118;DHT22;3089;48.202;11.510;2024-02-21T04:36:07;6.20;99.90
6118;DHT22;3089;48.202;11.510;2024-02-21T04:38:35;6.20;99.90
6118;DHT22;3089;48.202;11.510;2024-02-21T04:41:05;6.10;99.90
6118;DHT22;3089;48.202;11.510;2024-02-21T04:43:35;6.10;99.90
6118;DHT22;3089;48.202;11.510;2024-02-21T04:46:03;6.10;99.90
6118;DHT22;3089;48.202;11.510;2024-02-21T04:48:32;6.10;99.90
6118;DHT22;3089;48.202;11.510;2024-02-21T04:51:00;6.10;99.90
6118;DHT22;3089;48.202;11.510;2024-02-21T04:53:27;6.00;99.90
6118;DHT22;3089;48.202;11.510;2024-02-21T04:55:55;6.10;99.90
6118;DHT22;3089;48.202;11.510;2024-02-21T04:58:24;6.10;99.90
6118;DHT22;3089;48.202;11.510;2024-02-21T05:00:53;6.00;99.90
6118;DHT22;3089;48.202;11.510;2024-02-21T05:03:22;6.00;99.90
6118;DHT22;3089;48.202;11.510;2024-02-21T05:05:50;6.00;99.90
6118;DHT22;3089;48.202;11.510;2024-02-21T05:08:18;5.90;99.90
6118;DHT22;3089;48.202;11.510;2024-02-21T05:10:46;6.00;99.90
6118;DHT22;3089;48.202;11.510;2024-02-21T05:13:14;5.80;99.90
6118;DHT22;3089;48.202;11.510;2024-02-21T05:15:42;5.90;99.90
6118;DHT22;3089;48.202;11.510;2024-02-21T05:18:12;5.90;99.90
6118;DHT22;3089;48.202;11.510;2024-02-21T05:20:40;5.90;99.90
6118;DHT22;3089;48.202;11.510;2024-02-21T05:23:08;5.90;99.90
6118;DHT22;3089;48.202;11.510;2024-02-21T05:25:36;5.90;99.90
6118;DHT22;3089;48.202;11.510;2024-02-21T05:28:04;5.90;99.90
6118;DHT22;3089;48.202;11.510;2024-02-21T05:30:33;5.90;99.90
6118;DHT22;3089;48.202;11.510;2024-02-21T05:33:04;5.90;99.90
6118;DHT22;3089;48.202;11.510;2024-02-21T05:35:35;5.90;99.90
6118;DHT22;3089;48.202;11.510;2024-02-21T05:38:03;5.90;99.90
6118;DHT22;3089;48.202;11.510;2024-02-21T05:40:33;5.90;99.90
6118;DHT22;3089;48.202;11.510;2024-02-21T05:43:01;5.90;99.90
6118;DHT22;3089;48.202;11.510;2024-02-21T05:45:29;5.90;99.90
6118;DHT22;3089;48.202;11.510;2024-02-21T05:47:57;5.90;99.90
6118;DHT22;3089;48.202;11.510;2024-02-21T05:50:25;5.90;99.90
6118;DHT22;3089;48.202;11.510;2024-02-21T05:52:55;6.00;99.90
6118;DHT22;3089;48.202;11.510;2024-02-21T05:55:23;5.80;99.90
6118;DHT22;3089;48.202;11.510;2024-02-21T05:57:53;5.90;99.90
6118;DHT22;3089;48.202;11.510;2024-02-21T06:00:22;5.70;99.90
6118;DHT22;3089;48.202;11.510;2024-02-21T06:02:50;5.80;99.90
6118;DHT22;3089;48.202;11.510;2024-02-21T06:05:18;5.90;99.90
6118;DHT22;3089;48.202;11.510;2024-02-21T06:07:46;5.70;99.90
6118;DHT22;3089;48.202;11.510;2024-02-21T06:10:15;5.70;99.90
6118;DHT22;3089;48.202;11.510;2024-02-21T06:12:44;5.70;99.90
6118;DHT22;3089;48.202;11.510;2024-02-21T06:15:12;5.60;99.90
6118;DHT22;3089;48.202;11.510;2024-02-21T06:17:39;5.70;99.90
6118;DHT22;3089;48.202;11.510;2024-02-21T06:20:08;5.70;99.90
6118;DHT22;3089;48.202;11.510;2024-02-21T06:22:36;5.70;99.90
6118;DHT22;3089;48.202;11.510;2024-02-21T06:25:05;5.80;99.90
6118;DHT22;3089;48.202;11.510;2024-02-21T06:27:34;5.70;99.90
6118;DHT22;3089;48.202;11.510;2024-02-21T06:30:02;5.70;99.90
6118;DHT22;3089;48.202;11.510;2024-02-21T06:32:30;5.60;99.90
6118;DHT22;3089;48.202;11.510;2024-02-21T06:34:58;5.70;99.90
6118;DHT22;3089;48.202;11.510;2024-02-21T06:37:28;5.60;99.90
6118;DHT22;3089;48.202;11.510;2024-02-21T06:39:57;5.70;99.90
6118;DHT22;3089;48.202;11.510;2024-02-21T06:42:25;5.60;99.90
6118;DHT22;3089;48.202;11.510;2024-02-21T06:44:54;5.70;99.90
6118;DHT22;3089;48.202;11.510;2024-02-21T06:47:23;5.90;99.90
6118;DHT22;3089;48.202;11.510;2024-02-21T06:49:51;6.00;99.90
6118;DHT22;3089;48.202;11.510;2024-02-21T06:52:19;6.30;99.90
6118;DHT22;3089;48.202;11.510;2024-02-21T06:54:47;6.20;99.90
6118;DHT22;3089;48.202;11.510;2024-02-21T06:57:16;5.90;99.90
6118;DHT22;3089;48.202;11.510;2024-02-21T06:59:44;5.80;99.90
6118;DHT22;3089;48.202;11.510;2024-02-21T07:02:13;5.80;99.90
6118;DHT22;3089;48.202;11.510;2024-02-21T07:04:41;5.50;99.90
6118;DHT22;3089;48.202;11.510;2024-02-21T07:07:10;5.50;99.90
6118;DHT22;3089;48.202;11.510;2024-02-21T07:09:39;5.60;99.90
6118;DHT22;3089;48.202;11.510;2024-02-21T07:12:07;5.70;99.90
6118;DHT22;3089;48.202;11.510;2024-02-21T07:14:36;5.80;99.90
6118;DHT22;3089;48.202;11.510;2024-02-21T07:17:04;5.90;99.90
6118;DHT22;3089;48.202;11.510;2024-02-21T07:19:33;5.90;99.90
6118;DHT22;3089;48.202;11.510;2024-02-21T07:22:02;5.90;99.90
6118;DHT22;3089;48.202;11.510;2024-02-21T07:24:30;5.90;99.90
6118;DHT22;3089;48.202;11.510;2024-02-21T07:26:59;5.80;99.90
6118;DHT22;3089;48.202;11.510;2024-02-21T07:29:31;5.90;99.90
6118;DHT22;3089;48.202;11.510;2024-02-21T07:31:59;5.90;99.90
6118;DHT22;3089;48.202;11.510;2024-02-21T07:34:27;5.90;99.90
6118;DHT22;3089;48.202;11.510;2024-02-21T07:36:57;5.80;99.90
6118;DHT22;3089;48.202;11.510;2024-02-21T07:39:25;5.80;99.90
6118;DHT22;3089;48.202;11.510;2024-02-21T07:41:53;5.70;99.90
6118;DHT22;3089;48.202;11.510;2024-02-21T07:44:21;5.90;99.90
6118;DHT22;3089;48.202;11.510;2024-02-21T07:46:49;7.10;99.90
6118;DHT22;3089;48.202;11.510;2024-02-21T07:49:17;7.30;99.90
6118;DHT22;3089;48.202;11.510;2024-02-21T07:51:45;6.50;99.90
6118;DHT22;3089;48.202;11.510;2024-02-21T07:54:14;6.50;99.90
6118;DHT22;3089;48.202;11.510;2024-02-21T07:56:44;6.40;99.90
6118;DHT22;3089;48.202;11.510;2024-02-21T07:59:12;6.50;99.90
6118;DHT22;3089;48.202;11.510;2024-02-21T08:01:40;6.40;99.90
6118;DHT22;3089;48.202;11.510;2024-02-21T08:04:09;7.20;99.90
6118;DHT22;3089;48.202;11.510;2024-02-21T08:06:37;7.60;99.90
6118;DHT22;3089;48.202;11.510;2024-02-21T08:09:05;6.80;99.90
6118;DHT22;3089;48.202;11.510;2024-02-21T08:11:34;6.30;99.90
6118;DHT22;3089;48.202;11.510;2024-02-21T08:14:02;6.40;99.90
6118;DHT22;3089;48.202;11.510;2024-02-21T08:16:30;6.40;99.90
6118;DHT22;3089;48.202;11.510;2024-02-21T08:18:58;6.40;99.90
6118;DHT22;3089;48.202;11.510;2024-02-21T08:21:28;6.40;99.90
6118;DHT22;3089;48.202;11.510;2024-02-21T08:23:56;6.80;99.90
6118;DHT22;3089;48.202;11.510;2024-02-21T08:26:24;7.20;99.90
6118;DHT22;3089;48.202;11.510;2024-02-21T08:28:56;7.30;99.90
6118;DHT22;3089;48.202;11.510;2024-02-21T08:31:26;7.10;99.90
6118;DHT22;3089;48.202;11.510;2024-02-21T08:33:58;8.70;99.90
6118;DHT22;3089;48.202;11.510;2024-02-21T08:36:29;9.40;99.90
6118;DHT22;3089;48.202;11.510;2024-02-21T08:38:57;9.10;99.90
6118;DHT22;3089;48.202;11.510;2024-02-21T08:41:25;9.10;99.90
6118;DHT22;3089;48.202;11.510;2024-02-21T08:44:15;9.80;99.90
6118;DHT22;3089;48.202;11.510;2024-02-21T08:46:43;10.00;99.90
6118;DHT22;3089;48.202;11.510;2024-02-21T08:49:11;10.00;99.90
6118;DHT22;3089;48.202;11.510;2024-02-21T08:51:40;9.60;99.90
6118;DHT22;3089;48.202;11.510;2024-02-21T08:54:09;9.40;99.90
6118;DHT22;3089;48.202;11.510;2024-02-21T08:56:38;8.90;99.90
6118;DHT22;3089;48.202;11.510;2024-02-21T08:59:06;8.60;99.90
6118;DHT22;3089;48.202;11.510;2024-02-21T09:01:35;8.70;99.90
6118;DHT22;3089;48.202;11.510;2024-02-21T09:04:04;8.70;99.90
6118;DHT22;3089;48.202;11.510;2024-02-21T09:06:32;8.50;99.90
6118;DHT22;3089;48.202;11.510;2024-02-21T09:09:04;8.50;99.90
6118;DHT22;3089;48.202;11.510;2024-02-21T09:11:32;8.80;99.90
6118;DHT22;3089;48.202;11.510;2024-02-21T09:14:00;9.30;99.90
6118;DHT22;3089;48.202;11.510;2024-02-21T09:16:31;9.50;99.90
6118;DHT22;3089;48.202;11.510;2024-02-21T09:19:01;9.20;99.90
6118;DHT22;3089;48.202;11.510;2024-02-21T09:21:29;9.10;99.90
6118;DHT22;3089;48.202;11.510;2024-02-21T09:23:57;8.70;99.90
6118;DHT22;3089;48.202;11.510;2024-02-21T09:26:26;9.00;99.90
6118;DHT22;3089;48.202;11.510;2024-02-21T09:28:54;9.10;99.90
6118;DHT22;3089;48.202;11.510;2024-02-21T09:31:22;9.10;99.90
6118;DHT22;3089;48.202;11.510;2024-02-21T09:33:50;9.00;99.90
6118;DHT22;3089;48.202;11.510;2024-02-21T09:36:20;9.20;99.90
6118;DHT22;3089;48.202;11.510;2024-02-21T09:38:48;9.70;99.90
6118;DHT22;3089;48.202;11.510;2024-02-21T09:41:17;10.20;99.90
6118;DHT22;3089;48.202;11.510;2024-02-21T09:43:51;10.20;99.90
6118;DHT22;3089;48.202;11.510;2024-02-21T09:46:25;10.80;99.90
6118;DHT22;3089;48.202;11.510;2024-02-21T09:49:04;10.60;99.90
6118;DHT22;3089;48.202;11.510;2024-02-21T09:51:40;10.50;99.90
6118;DHT22;3089;48.202;11.510;2024-02-21T09:54:09;10.60;99.90
6118;DHT22;3089;48.202;11.510;2024-02-21T09:56:45;10.60;99.90
6118;DHT22;3089;48.202;11.510;2024-02-21T09:59:14;10.70;99.90
6118;DHT22;3089;48.202;11.510;2024-02-21T10:01:43;10.80;99.90
6118;DHT22;3089;48.202;11.510;2024-02-21T10:04:13;10.90;99.90
6118;DHT22;3089;48.202;11.510;2024-02-21T10:06:43;11.00;99.90
6118;DHT22;3089;48.202;11.510;2024-02-21T10:09:20;10.90;99.90
6118;DHT22;3089;48.202;11.510;2024-02-21T10:11:50;10.80;99.90
6118;DHT22;3089;48.202;11.510;2024-02-21T10:14:18;10.70;99.90
6118;DHT22;3089;48.202;11.510;2024-02-21T10:16:47;10.90;99.90
6118;DHT22;3089;48.202;11.510;2024-02-21T10:19:17;10.90;99.90
6118;DHT22;3089;48.202;11.510;2024-02-21T10:22:00;10.90;99.90
6118;DHT22;3089;48.202;11.510;2024-02-21T10:24:28;10.90;99.90
6118;DHT22;3089;48.202;11.510;2024-02-21T10:27:01;11.10;99.90
6118;DHT22;3089;48.202;11.510;2024-02-21T10:29:30;11.20;99.90
6118;DHT22;3089;48.202;11.510;2024-02-21T10:32:08;11.20;99.90
6118;DHT22;3089;48.202;11.510;2024-02-21T10:34:38;11.30;99.90
6118;DHT22;3089;48.202;11.510;2024-02-21T10:37:09;11.30;99.90
6118;DHT22;3089;48.202;11.510;2024-02-21T10:39:39;11.30;99.90
6118;DHT22;3089;48.202;11.510;2024-02-21T10:42:07;11.50;99.90
6118;DHT22;3089;48.202;11.510;2024-02-21T10:44:39;11.60;99.90
6118;DHT22;3089;48.202;11.510;2024-02-21T10:47:10;11.60;99.90
6118;DHT22;3089;48.202;11.510;2024-02-21T10:49:40;11.50;99.90
6118;DHT22;3089;48.202;11.510;2024-02-21T10:52:14;11.80;99.90
6118;DHT22;3089;48.202;11.510;2024-02-21T10:54:47;11.60;99.90
6118;DHT22;3089;48.202;11.510;2024-02-21T10:57:17;11.90;99.90
6118;DHT22;3089;48.202;11.510;2024-02-21T10:59:48;11.70;99.90
6118;DHT22;3089;48.202;11.510;2024-02-21T11:02:16;11.90;99.90
6118;DHT22;3089;48.202;11.510;2024-02-21T11:04:46;12.00;99.90
6118;DHT22;3089;48.202;11.510;2024-02-21T11:07:16;12.00;99.90
6118;DHT22;3089;48.202;11.510;2024-02-21T11:09:51;12.10;99.90
6118;DHT22;3089;48.202;11.510;2024-02-21T11:12:22;11.80;99.90
6118;DHT22;3089;48.202;11.510;2024-02-21T11:14:51;11.70;99.90
6118;DHT22;3089;48.202;11.510;2024-02-21T11:17:20;12.10;99.90
6118;DHT22;3089;48.202;11.510;2024-02-21T11:19:51;12.20;99.90
6118;DHT22;3089;48.202;11.510;2024-02-21T11:22:20;12.00;99.90
6118;DHT22;3089;48.202;11.510;2024-02-21T11:24:49;12.30;99.90
6118;DHT22;3089;48.202;11.510;2024-02-21T11:27:19;12.40;99.90
6118;DHT22;3089;48.202;11.510;2024-02-21T11:29:49;12.30;99.90
6118;DHT22;3089;48.202;11.510;2024-02-21T11:32:19;12.50;99.90
6118;DHT22;3089;48.202;11.510;2024-02-21T11:34:55;12.40;99.90
6118;DHT22;3089;48.202;11.510;2024-02-21T11:37:26;12.40;99.90
6118;DHT22;3089;48.202;11.510;2024-02-21T11:39:54;12.40;99.90
6118;DHT22;3089;48.202;11.510;2024-02-21T11:42:24;12.30;99.90
6118;DHT22;3089;48.202;11.510;2024-02-21T11:44:53;12.20;99.90
6118;DHT22;3089;48.202;11.510;2024-02-21T11:47:23;12.10;99.90
6118;DHT22;3089;48.202;11.510;2024-02-21T11:49:52;12.10;99.90
6118;DHT22;3089;48.202;11.510;2024-02-21T11:52:22;12.10;99.90
6118;DHT22;3089;48.202;11.510;2024-02-21T11:54:53;12.10;99.90
6118;DHT22;3089;48.202;11.510;2024-02-21T11:57:24;12.20;99.90
6118;DHT22;3089;48.202;11.510;2024-02-21T11:59:52;12.20;99.90
6118;DHT22;3089;48.202;11.510;2024-02-21T12:02:26;12.20;99.90
6118;DHT22;3089;48.202;11.510;2024-02-21T12:04:54;12.40;99.90
6118;DHT22;3089;48.202;11.510;2024-02-21T12:07:22;12.50;99.90
6118;DHT22;3089;48.202;11.510;2024-02-21T12:09:52;12.60;99.90
6118;DHT22;3089;48.202;11.510;2024-02-21T12:12:20;12.70;99.90
6118;DHT22;3089;48.202;11.510;2024-02-21T12:14:55;12.90;99.90
6118;DHT22;3089;48.202;11.510;2024-02-21T12:17:24;13.10;99.90
6118;DHT22;3089;48.202;11.510;2024-02-21T12:19:52;13.10;99.90
6118;DHT22;3089;48.202;11.510;2024-02-21T12:22:20;13.20;99.90
6118;DHT22;3089;48.202;11.510;2024-02-21T12:24:49;13.10;99.90
6118;DHT22;3089;48.202;11.510;2024-02-21T12:27:18;13.30;99.90
6118;DHT22;3089;48.202;11.510;2024-02-21T12:29:46;13.00;99.90
6118;DHT22;3089;48.202;11.510;2024-02-21T12:32:14;12.90;99.90
6118;DHT22;3089;48.202;11.510;2024-02-21T12:34:42;13.10;99.90
6118;DHT22;3089;48.202;11.510;2024-02-21T12:37:21;13.30;99.90
6118;DHT22;3089;48.202;11.510;2024-02-21T12:39:49;13.30;99.90
6118;DHT22;3089;48.202;11.510;2024-02-21T12:42:19;13.60;99.90
6118;DHT22;3089;48.202;11.510;2024-02-21T12:44:47;13.50;99.90
6118;DHT22;3089;48.202;11.510;2024-02-21T12:47:15;13.20;99.90
6118;DHT22;3089;48.202;11.510;2024-02-21T12:49:45;13.10;99.90
6118;DHT22;3089;48.202;11.510;2024-02-21T12:52:13;12.80;99.90
6118;DHT22;3089;48.202;11.510;2024-02-21T12:54:41;12.90;99.90
6118;DHT22;3089;48.202;11.510;2024-02-21T12:57:10;13.00;99.90
6118;DHT22;3089;48.202;11.510;2024-02-21T12:59:39;12.90;99.90
6118;DHT22;3089;48.202;11.510;2024-02-21T13:02:07;13.00;99.90
6118;DHT22;3089;48.202;11.510;2024-02-21T13:04:36;13.10;99.90
6118;DHT22;3089;48.202;11.510;2024-02-21T13:07:08;12.90;99.90
6118;DHT22;3089;48.202;11.510;2024-02-21T13:09:36;12.90;99.90
6118;DHT22;3089;48.202;11.510;2024-02-21T13:12:05;13.10;99.90
6118;DHT22;3089;48.202;11.510;2024-02-21T13:14:33;13.00;99.90
6118;DHT22;3089;48.202;11.510;2024-02-21T13:17:03;12.90;99.90
6118;DHT22;3089;48.202;11.510;2024-02-21T13:19:31;13.00;99.90
6118;DHT22;3089;48.202;11.510;2024-02-21T13:21:59;12.90;99.90
6118;DHT22;3089;48.202;11.510;2024-02-21T13:24:29;12.90;99.90
6118;DHT22;3089;48.202;11.510;2024-02-21T13:26:57;12.80;99.90
6118;DHT22;3089;48.202;11.510;2024-02-21T13:29:25;12.70;99.90
6118;DHT22;3089;48.202;11.510;2024-02-21T13:31:53;12.80;99.90
6118;DHT22;3089;48.202;11.510;2024-02-21T13:34:23;12.70;99.90
6118;DHT22;3089;48.202;11.510;2024-02-21T13:36:52;12.70;99.90
6118;DHT22;3089;48.202;11.510;2024-02-21T13:39:20;12.70;99.90
6118;DHT22;3089;48.202;11.510;2024-02-21T13:41:48;12.70;99.90
6118;DHT22;3089;48.202;11.510;2024-02-21T13:44:16;12.70;99.90
6118;DHT22;3089;48.202;11.510;2024-02-21T13:46:44;12.70;99.90
6118;DHT22;3089;48.202;11.510;2024-02-21T13:49:12;12.70;99.90
6118;DHT22;3089;48.202;11.510;2024-02-21T13:51:42;12.70;99.90
6118;DHT22;3089;48.202;11.510;2024-02-21T13:54:11;12.60;99.90
6118;DHT22;3089;48.202;11.510;2024-02-21T13:56:43;12.50;99.90
6118;DHT22;3089;48.202;11.510;2024-02-21T13:59:12;12.70;99.90
6118;DHT22;3089;48.202;11.510;2024-02-21T14:01:41;12.70;99.90
6118;DHT22;3089;48.202;11.510;2024-02-21T14:04:09;12.70;99.90
6118;DHT22;3089;48.202;11.510;2024-02-21T14:06:38;12.70;99.90
6118;DHT22;3089;48.202;11.510;2024-02-21T14:09:11;12.70;99.90
6118;DHT22;3089;48.202;11.510;2024-02-21T14:11:39;12.70;99.90
6118;DHT22;3089;48.202;11.510;2024-02-21T14:14:08;12.70;99.90
6118;DHT22;3089;48.202;11.510;2024-02-21T14:16:36;12.60;99.90
6118;DHT22;3089;48.202;11.510;2024-02-21T14:19:04;12.50;99.90
6118;DHT22;3089;48.202;11.510;2024-02-21T14:21:33;12.50;99.90
6118;DHT22;3089;48.202;11.510;2024-02-21T14:24:04;12.50;99.90
6118;DHT22;3089;48.202;11.510;2024-02-21T14:26:33;12.50;99.90
6118;DHT22;3089;48.202;11.510;2024-02-21T14:29:02;12.50;99.90
6118;DHT22;3089;48.202;11.510;2024-02-21T14:31:31;12.40;99.90
6118;DHT22;3089;48.202;11.510;2024-02-21T14:34:00;12.40;99.90
6118;DHT22;3089;48.202;11.510;2024-02-21T14:36:29;12.30;99.90
6118;DHT22;3089;48.202;11.510;2024-02-21T14:38:57;12.30;99.90
6118;DHT22;3089;48.202;11.510;2024-02-21T14:41:25;12.40;99.90
6118;DHT22;3089;48.202;11.510;2024-02-21T14:43:55;12.40;99.90
6118;DHT22;3089;48.202;11.510;2024-02-21T14:46:30;12.30;99.90
6118;DHT22;3089;48.202;11.510;2024-02-21T14:48:58;12.30;99.90
6118;DHT22;3089;48.202;11.510;2024-02-21T14:51:26;12.20;99.90
6118;DHT22;3089;48.202;11.510;2024-02-21T14:53:54;12.10;99.90
6118;DHT22;3089;48.202;11.510;2024-02-21T14:56:22;12.10;99.90
6118;DHT22;3089;48.202;11.510;2024-02-21T14:58:51;12.00;99.90
6118;DHT22;3089;48.202;11.510;2024-02-21T15:01:24;12.00;99.90
6118;DHT22;3089;48.202;11.510;2024-02-21T15:03:52;12.00;99.90
6118;DHT22;3089;48.202;11.510;2024-02-21T15:06:21;12.00;99.90
6118;DHT22;3089;48.202;11.510;2024-02-21T15:08:49;12.00;99.90
6118;DHT22;3089;48.202;11.510;2024-02-21T15:11:18;11.90;99.90
6118;DHT22;3089;48.202;11.510;2024-02-21T15:13:46;11.90;99.90
6118;DHT22;3089;48.202;11.510;2024-02-21T15:16:14;11.80;99.90
6118;DHT22;3089;48.202;11.510;2024-02-21T15:18:44;11.80;99.90
6118;DHT22;3089;48.202;11.510;2024-02-21T15:21:12;11.90;99.90
6118;DHT22;3089;48.202;11.510;2024-02-21T15:23:42;11.70;99.90
6118;DHT22;3089;48.202;11.510;2024-02-21T15:26:10;11.70;99.90
6118;DHT22;3089;48.202;11.510;2024-02-21T15:28:39;11.60;99.90
6118;DHT22;3089;48.202;11.510;2024-02-21T15:31:07;11.60;99.90
6118;DHT22;3089;48.202;11.510;2024-02-21T15:33:35;11.50;99.90
6118;DHT22;3089;48.202;11.510;2024-02-21T15:36:07;11.50;99.90
6118;DHT22;3089;48.202;11.510;2024-02-21T15:38:35;11.50;99.90
6118;DHT22;3089;48.202;11.510;2024-02-21T15:41:03;11.40;99.90
6118;DHT22;3089;48.202;11.510;2024-02-21T15:43:32;11.40;99.90
6118;DHT22;3089;48.202;11.510;2024-02-21T15:46:01;11.40;99.90
6118;DHT22;3089;48.202;11.510;2024-02-21T15:48:29;11.30;99.90
6118;DHT22;3089;48.202;11.510;2024-02-21T15:50:57;11.30;99.90
6118;DHT22;3089;48.202;11.510;2024-02-21T15:53:27;11.20;99.90
6118;DHT22;3089;48.202;11.510;2024-02-21T15:55:55;11.20;99.90
6118;DHT22;3089;48.202;11.510;2024-02-21T15:58:23;11.10;99.90
6118;DHT22;3089;48.202;11.510;2024-02-21T16:00:51;11.10;99.90
6118;DHT22;3089;48.202;11.510;2024-02-21T16:03:19;11.10;99.90
6118;DHT22;3089;48.202;11.510;2024-02-21T16:05:48;11.10;99.90